createdAt,value
2023-04-27T00:00:10.591Z,6.003284
2023-04-27T00:05:22.785Z,5.949657
2023-04-27T00:10:35.016Z,5.906757
2023-04-27T00:15:47.264Z,5.85313
2023-04-27T00:20:59.375Z,5.81023
2023-04-27T00:26:12.391Z,5.74588
2023-04-27T00:31:24.682Z,5.70298
2023-04-27T00:36:36.837Z,5.63863
2023-04-27T00:41:49.053Z,5.57428
2023-04-27T00:47:01.177Z,5.520653
2023-04-27T00:52:13.443Z,5.46703
2023-04-27T00:57:27.480Z,5.402679
2023-04-27T01:02:39.821Z,5.381226
2023-04-27T01:07:52.143Z,5.338326
2023-04-27T01:13:04.398Z,5.381226
2023-04-27T01:18:17.340Z,5.338326
2023-04-27T01:23:30.212Z,5.338326
2023-04-27T01:28:44.225Z,5.327602
2023-04-27T01:33:56.319Z,5.263252
2023-04-27T01:39:08.568Z,5.252525
2023-04-27T01:44:20.665Z,5.252525
2023-04-27T01:49:32.849Z,5.231075
2023-04-27T01:54:45.031Z,5.220352
2023-04-27T01:59:57.214Z,5.198902
2023-04-27T02:05:17.073Z,5.166725
2023-04-27T02:10:29.263Z,5.177452
2023-04-27T02:15:41.721Z,5.145275
2023-04-27T02:20:54.065Z,5.113098
2023-04-27T02:31:51.825Z,5.080925
2023-04-27T02:37:22.504Z,5.070198
2023-04-27T02:42:34.634Z,5.059475
2023-04-27T02:47:52.952Z,5.059475
2023-04-27T02:53:05.298Z,5.091648
2023-04-27T02:58:29.708Z,5.177452
2023-04-27T03:03:42.021Z,5.177452
2023-04-27T03:09:00.657Z,5.145275
2023-04-27T03:14:12.839Z,5.123825
2023-04-27T03:19:25.020Z,5.113098
2023-04-27T03:24:37.110Z,5.102375
2023-04-27T03:29:49.664Z,5.113098
2023-04-27T03:35:02.213Z,5.091648
2023-04-27T03:40:14.456Z,5.113098
2023-04-27T03:45:26.731Z,5.091648
2023-04-27T03:50:38.844Z,5.070198
2023-04-27T03:55:56.282Z,5.059475
2023-04-27T04:01:08.513Z,5.027298
2023-04-27T04:06:20.764Z,5.038025
2023-04-27T04:11:32.931Z,5.027298
2023-04-27T04:16:45.171Z,5.027298
2023-04-27T04:21:57.285Z,5.016575
2023-04-27T04:27:09.479Z,5.038025
2023-04-27T04:32:21.648Z,5.048748
2023-04-27T04:37:34.514Z,5.038025
2023-04-27T04:42:46.672Z,5.080925
2023-04-27T04:47:58.953Z,5.123825
2023-04-27T04:53:11.088Z,5.177452
2023-04-27T04:58:23.893Z,5.241802
2023-04-27T05:03:36.415Z,5.338326
2023-04-27T05:08:48.756Z,5.46703
2023-04-27T05:14:00.872Z,5.627903
2023-04-27T05:19:13.222Z,5.83168
2023-04-27T05:24:25.598Z,6.046185
2023-04-27T05:29:37.811Z,6.335762
2023-04-27T05:34:50.001Z,6.62534
2023-04-27T05:40:02.245Z,6.96854
2023-04-27T05:45:14.386Z,7.279572
2023-04-27T05:50:26.580Z,7.676399
2023-04-27T05:55:38.812Z,8.0196
2023-04-27T06:00:51.141Z,8.448605
2023-04-27T06:06:07.858Z,8.984859
2023-04-27T06:11:19.983Z,9.446041
2023-04-27T06:16:33.918Z,9.853592
2023-04-27T06:21:46.689Z,10.29332
2023-04-27T06:26:58.804Z,10.74378
2023-04-27T06:32:11.548Z,11.21568
2023-04-27T06:37:23.675Z,11.61251
2023-04-27T06:42:35.807Z,11.92354
2023-04-27T06:47:47.940Z,12.40617
2023-04-27T06:53:00.200Z,12.78154
2023-04-27T06:58:12.326Z,13.43578
2023-04-27T07:03:24.609Z,13.95058
2023-04-27T07:08:36.949Z,14.48684
2023-04-27T07:13:49.141Z,15.00164
2023-04-27T07:19:01.243Z,15.5808
2023-04-27T07:24:13.538Z,16.42808
2023-04-27T07:29:27.437Z,17.13593
2023-04-27T07:34:51.933Z,17.60784
2023-04-27T07:40:07.631Z,18.33714
2023-04-27T07:45:19.816Z,18.8734
2023-04-27T07:50:32.009Z,19.32385
2023-04-27T07:55:44.148Z,20.02099
2023-04-27T08:00:58.104Z,20.44999
2023-04-27T08:06:12.301Z,21.37234
2023-04-27T08:11:24.634Z,21.84425
2023-04-27T08:16:36.947Z,22.05875
2023-04-27T08:21:49.149Z,22.63791
2023-04-27T08:27:01.293Z,22.79879
2023-04-27T08:32:13.440Z,22.62718
2023-04-27T08:37:25.864Z,22.34834
2023-04-27T08:42:38.059Z,22.16601
2023-04-27T08:47:50.253Z,22.04803
2023-04-27T08:53:02.712Z,21.97295
2023-04-27T08:58:14.828Z,21.737
2023-04-27T09:03:27.075Z,21.83353
2023-04-27T09:08:39.966Z,22.05875
2023-04-27T09:13:52.092Z,21.81208
2023-04-27T09:19:04.269Z,22.69154
2023-04-27T09:24:16.368Z,23.06692
2023-04-27T09:29:28.486Z,23.60317
2023-04-27T09:34:40.619Z,24
2023-04-27T09:39:52.715Z,23.92492
2023-04-27T09:45:04.832Z,24.54697
2023-04-27T09:50:16.939Z,24.95453
2023-04-27T09:55:29.057Z,25.37281
2023-04-27T10:00:41.228Z,26.08067
2023-04-27T10:05:53.350Z,26.14502
2023-04-27T10:11:05.535Z,25.91979
2023-04-27T10:16:19.568Z,26.25227
2023-04-27T10:21:31.711Z,26.28445
2023-04-27T10:26:43.806Z,26.73489
2023-04-27T10:31:55.991Z,25.82327
2023-04-27T10:37:08.109Z,26.9923
2023-04-27T10:42:20.326Z,26.78852
2023-04-27T10:47:34.587Z,26.50967
2023-04-27T10:52:46.743Z,26.46677
2023-04-27T10:57:58.882Z,26.55257
2023-04-27T11:03:11.089Z,24.61133
2023-04-27T11:08:23.321Z,24.09652
2023-04-27T11:13:35.726Z,24.02145
2023-04-27T11:18:47.910Z,24.01072
2023-04-27T11:24:02.159Z,23.63535
2023-04-27T11:29:15.011Z,23.97855
2023-04-27T11:34:27.728Z,24.26813
2023-04-27T11:39:39.861Z,24.33247
2023-04-27T11:44:51.996Z,23.14199
2023-04-27T11:50:06.628Z,23.06692
2023-04-27T11:55:18.803Z,23.81767
2023-04-27T12:00:32.718Z,24.36465
2023-04-27T12:05:44.995Z,24.89018
2023-04-27T12:10:57.273Z,24.87946
2023-04-27T12:16:09.970Z,25.27628
2023-04-27T12:21:22.503Z,25.43716
2023-04-27T12:26:34.710Z,24.48263
2023-04-27T12:31:46.823Z,24.87946
2023-04-27T12:36:58.940Z,25.11541
2023-04-27T12:42:11.080Z,25.28701
2023-04-27T12:52:48.552Z,24.94381
2023-04-27T12:58:00.672Z,24.84728
2023-04-27T13:03:13.486Z,25.08323
2023-04-27T13:08:26.488Z,24.83656
2023-04-27T13:13:38.672Z,25.46934
2023-04-27T13:18:50.826Z,25.27628
2023-04-27T13:24:02.957Z,25.40498
2023-04-27T13:29:15.154Z,24.3003
2023-04-27T13:34:27.563Z,24.7722
2023-04-27T13:39:39.768Z,24.66496
2023-04-27T13:44:52.082Z,24.61133
2023-04-27T13:50:04.325Z,23.89275
2023-04-27T13:55:16.466Z,23.68897
2023-04-27T14:00:28.661Z,23.07764
2023-04-27T14:05:40.856Z,23.15272
2023-04-27T14:10:53.049Z,22.13383
2023-04-27T14:16:05.515Z,21.80135
2023-04-27T14:21:17.870Z,22.12311
2023-04-27T14:26:29.970Z,21.8228
2023-04-27T14:31:42.325Z,22.27325
2023-04-27T14:36:54.513Z,22.77734
2023-04-27T14:42:07.261Z,22.83096
2023-04-27T14:47:19.608Z,22.99184
2023-04-27T14:52:31.910Z,23.18489
2023-04-27T14:57:44.167Z,23.17416
2023-04-27T15:02:56.365Z,23.15272
2023-04-27T15:08:08.665Z,23.45302
2023-04-27T15:13:20.809Z,23.73187
2023-04-27T15:18:35.109Z,23.84985
2023-04-27T15:23:47.259Z,23.79622
2023-04-27T15:29:00.142Z,23.54955
2023-04-27T15:34:12.343Z,23.32432
2023-04-27T15:39:25.070Z,23.05619
2023-04-27T15:44:38.650Z,22.68081
2023-04-27T15:49:57.617Z,22.31615
2023-04-27T15:55:10.388Z,22.82024
2023-04-27T16:00:22.729Z,22.84169
2023-04-27T16:05:35.622Z,22.61646
2023-04-27T16:10:47.790Z,22.74516
2023-04-27T16:16:00.024Z,22.87386
2023-04-27T16:21:12.147Z,23.14199
2023-04-27T16:26:25.428Z,22.98111
2023-04-27T16:31:39.561Z,22.86314
2023-04-27T16:36:51.713Z,22.89531
2023-04-27T16:42:03.856Z,23.07764
2023-04-27T16:47:15.970Z,22.90604
2023-04-27T16:52:28.333Z,21.89788
2023-04-27T16:57:40.434Z,21.71555
2023-04-27T17:02:52.723Z,21.10422
2023-04-27T17:08:05.517Z,20.94334
2023-04-27T17:13:18.004Z,20.51434
2023-04-27T17:18:30.106Z,20.37492
2023-04-27T17:23:42.347Z,20.22476
2023-04-27T17:28:54.446Z,19.81721
2023-04-27T17:34:06.611Z,19.60271
2023-04-27T17:39:18.838Z,19.33458
2023-04-27T17:44:31.016Z,18.59455
2023-04-27T17:54:46.556Z,17.55421
2023-04-27T17:59:58.702Z,17.12521
2023-04-27T18:05:10.914Z,16.82491
2023-04-27T18:10:24.367Z,16.54605
2023-04-27T18:15:36.497Z,16.353
2023-04-27T18:20:48.685Z,16.12778
2023-04-27T18:26:02.849Z,15.90255
2023-04-27T18:31:15.043Z,15.73095
2023-04-27T18:36:27.562Z,15.52717
2023-04-27T18:41:39.906Z,15.26977
2023-04-27T18:46:52.009Z,15.03382
2023-04-27T18:52:04.202Z,14.81931
2023-04-27T18:57:16.312Z,14.62626
2023-04-27T19:02:28.554Z,14.45466
2023-04-27T19:07:40.947Z,14.10073
2023-04-27T19:12:53.223Z,13.81115
2023-04-27T19:23:30.950Z,13.24273
2023-04-27T19:28:43.614Z,12.95315
2023-04-27T19:34:03.748Z,12.68502
2023-04-27T19:39:16.457Z,12.50269
2023-04-27T19:44:28.581Z,12.34182
2023-04-27T19:49:40.767Z,12.19167
2023-04-27T19:54:52.951Z,12.02006
2023-04-27T20:00:05.137Z,11.77338
2023-04-27T20:05:18.091Z,11.51598
2023-04-27T20:10:30.706Z,11.30148
2023-04-27T20:15:43.934Z,11.15133
2023-04-27T20:21:02.249Z,10.969
2023-04-27T20:26:26.655Z,10.7545
2023-04-27T20:31:45.754Z,10.55072
2023-04-27T20:36:57.897Z,10.44347
2023-04-27T20:42:10.001Z,10.27187
2023-04-27T20:47:22.109Z,10.111
2023-04-27T20:52:34.811Z,9.907219
2023-04-27T20:57:47.647Z,9.810692
2023-04-27T21:03:12.143Z,9.703442
2023-04-27T21:08:24.365Z,9.617641
2023-04-27T21:13:36.627Z,9.553291
2023-04-27T21:18:48.813Z,9.467491
2023-04-27T21:24:07.908Z,9.435314
2023-04-27T21:29:30.948Z,9.435314
2023-04-27T21:34:49.306Z,9.467491
2023-04-27T21:40:01.546Z,9.435314
2023-04-27T21:45:14.260Z,9.413864
2023-04-27T21:50:26.316Z,9.413864
2023-04-27T21:55:38.508Z,9.392414
2023-04-27T22:00:50.624Z,9.328064
2023-04-27T22:06:03.270Z,9.220814
2023-04-27T22:11:15.544Z,9.081387
2023-04-27T22:16:28.217Z,8.931236
2023-04-27T22:21:40.481Z,8.802532
2023-04-27T22:26:52.653Z,8.673832
2023-04-27T22:32:04.803Z,8.545132
2023-04-27T22:37:17.337Z,8.448605
2023-04-27T22:42:30.153Z,8.341354
2023-04-27T22:47:42.419Z,8.223377
2023-04-27T22:52:54.619Z,8.094677
2023-04-27T22:58:06.733Z,7.987427
2023-04-27T23:03:19.116Z,7.91235
2023-04-27T23:08:31.571Z,7.848
2023-04-27T23:13:44.197Z,8.030327
2023-04-27T23:18:56.512Z,8.137577
2023-04-27T23:24:08.718Z,8.169754
2023-04-27T23:29:20.949Z,8.234104
2023-04-27T23:34:33.267Z,8.309177
2023-04-27T23:39:45.449Z,8.394981
2023-04-27T23:44:57.937Z,8.470055
2023-04-27T23:50:10.122Z,8.545132
2023-04-27T23:55:22.248Z,8.695282
